Time,TemperatureF,DewpointF,PressureIn,WindDirection,WindDirectionDegrees,WindSpeedMPH,WindSpeedGustMPH,Humidity,HourlyPrecipIn,Conditions,Clouds,dailyrainin,SoftwareType,DateUTC
2013-01-18 00:04:00,16.0,5.0,-100.00,NNW,335,26.0,33.0,62,-99.99,,,-99.99,,2013-01-18 05:04:00,
2013-01-18 00:12:00,16.0,5.0,-100.00,NNW,335,26.0,33.0,62,-99.99,,,-99.99,,2013-01-18 05:12:00,
2013-01-18 00:22:00,16.0,6.0,-100.00,NW,325,24.0,32.0,66,-99.99,,,-99.99,,2013-01-18 05:22:00,
2013-01-18 00:33:00,16.0,5.0,-100.00,NW,310,19.0,32.0,63,-99.99,,,-99.99,,2013-01-18 05:33:00,
2013-01-18 00:43:00,16.0,5.0,-100.00,NW,310,19.0,32.0,63,-99.99,,,-99.99,,2013-01-18 05:43:00,
2013-01-18 00:53:00,16.0,5.0,-100.00,NW,325,17.0,31.0,63,-99.99,,,-99.99,,2013-01-18 05:53:00,
2013-01-18 01:02:00,16.0,7.0,-100.00,NW,325,22.0,43.0,67,-99.99,,,-99.99,,2013-01-18 06:02:00,
2013-01-18 01:12:00,16.0,7.0,-100.00,NW,325,22.0,43.0,67,-99.99,,,-99.99,,2013-01-18 06:12:00,
2013-01-18 01:22:00,16.0,8.0,-100.00,NNW,340,24.0,31.0,68,-99.99,,,-99.99,,2013-01-18 06:22:00,
2013-01-18 01:33:00,16.0,7.0,-100.00,NNW,330,24.0,29.0,66,-99.99,,,-99.99,,2013-01-18 06:33:00,
2013-01-18 01:43:00,16.0,7.0,-100.00,NNW,330,24.0,29.0,66,-99.99,,,-99.99,,2013-01-18 06:43:00,
2013-01-18 01:52:00,16.0,8.0,-100.00,NNW,340,21.0,28.0,70,-99.99,,,-99.99,,2013-01-18 06:52:00,
2013-01-18 02:02:00,16.0,8.0,-100.00,NW,315,27.0,33.0,71,-99.99,,,-99.99,,2013-01-18 07:02:00,
2013-01-18 02:12:00,16.0,8.0,-100.00,NW,315,27.0,33.0,71,-99.99,,,-99.99,,2013-01-18 07:12:00,
2013-01-18 02:22:00,16.0,6.0,-100.00,NW,310,21.0,29.0,64,-99.99,,,-99.99,,2013-01-18 07:22:00,
2013-01-18 02:33:00,17.0,8.0,-100.00,NW,320,24.0,31.0,68,-99.99,,,-99.99,,2013-01-18 07:33:00,
2013-01-18 02:42:00,17.0,8.0,-100.00,NW,320,24.0,31.0,68,-99.99,,,-99.99,,2013-01-18 07:42:00,
2013-01-18 02:52:00,16.0,7.0,-100.00,NW,320,21.0,27.0,65,-99.99,,,-99.99,,2013-01-18 07:52:00,
2013-01-18 03:02:00,16.0,7.0,-100.00,WNW,300,18.0,30.0,65,-99.99,,,-99.99,,2013-01-18 08:02:00,
2013-01-18 03:12:00,16.0,7.0,-100.00,WNW,300,18.0,30.0,65,-99.99,,,-99.99,,2013-01-18 08:12:00,
2013-01-18 03:22:00,17.0,6.0,-100.00,NW,315,16.0,26.0,61,-99.99,,,-99.99,,2013-01-18 08:22:00,
2013-01-18 03:32:00,17.0,7.0,-100.00,NW,310,18.0,29.0,65,-99.99,,,-99.99,,2013-01-18 08:32:00,
2013-01-18 03:42:00,17.0,7.0,-100.00,NW,310,18.0,29.0,65,-99.99,,,-99.99,,2013-01-18 08:42:00,
2013-01-18 03:53:00,17.0,6.0,-100.00,NW,310,19.0,26.0,63,-99.99,,,-99.99,,2013-01-18 08:53:00,
2013-01-18 04:03:00,17.0,5.0,-100.00,NW,305,20.0,26.0,59,-99.99,,,-99.99,,2013-01-18 09:03:00,
2013-01-18 04:12:00,17.0,5.0,-100.00,NW,305,20.0,26.0,59,-99.99,,,-99.99,,2013-01-18 09:12:00,
2013-01-18 04:22:00,17.0,7.0,-100.00,WNW,300,11.0,22.0,63,-99.99,,,-99.99,,2013-01-18 09:22:00,
2013-01-18 04:33:00,17.0,7.0,-100.00,NW,315,19.0,26.0,64,-99.99,,,-99.99,,2013-01-18 09:33:00,
2013-01-18 04:42:00,17.0,7.0,-100.00,NW,315,19.0,26.0,64,-99.99,,,-99.99,,2013-01-18 09:42:00,
2013-01-18 04:52:00,16.0,4.0,-100.00,West,280,6.0,18.0,57,-99.99,,,-99.99,,2013-01-18 09:52:00,
2013-01-18 05:03:00,16.0,3.0,-100.00,West,260,10.0,16.0,56,-99.99,,,-99.99,,2013-01-18 10:03:00,
2013-01-18 05:12:00,16.0,3.0,-100.00,West,260,10.0,16.0,56,-99.99,,,-99.99,,2013-01-18 10:12:00,
2013-01-18 05:22:00,16.0,3.0,-100.00,West,270,11.0,17.0,54,-99.99,,,-99.99,,2013-01-18 10:22:00,
2013-01-18 05:33:00,17.0,4.0,-100.00,WNW,290,7.0,14.0,58,-99.99,,,-99.99,,2013-01-18 10:33:00,
2013-01-18 05:43:00,17.0,4.0,-100.00,WNW,290,7.0,14.0,58,-99.99,,,-99.99,,2013-01-18 10:43:00,
2013-01-18 05:52:00,17.0,4.0,-100.00,West,265,12.0,17.0,58,-99.99,,,-99.99,,2013-01-18 10:52:00,
2013-01-18 06:03:00,17.0,6.0,-100.00,West,280,9.0,21.0,61,-99.99,,,-99.99,,2013-01-18 11:03:00,
2013-01-18 06:12:00,17.0,6.0,-100.00,West,280,9.0,21.0,61,-99.99,,,-99.99,,2013-01-18 11:12:00,
2013-01-18 06:23:00,17.0,4.0,-100.00,West,280,10.0,14.0,56,-99.99,,,-99.99,,2013-01-18 11:23:00,
2013-01-18 06:33:00,17.0,5.0,-100.00,WNW,300,11.0,17.0,59,-99.99,,,-99.99,,2013-01-18 11:33:00,
2013-01-18 06:42:00,17.0,5.0,-100.00,WNW,300,11.0,17.0,59,-99.99,,,-99.99,,2013-01-18 11:42:00,
2013-01-18 06:52:00,17.0,5.0,-100.00,West,275,11.0,19.0,59,-99.99,,,-99.99,,2013-01-18 11:52:00,
2013-01-18 07:03:00,17.0,5.0,-100.00,West,265,11.0,17.0,58,-99.99,,,-99.99,,2013-01-18 12:03:00,
2013-01-18 07:12:00,17.0,5.0,-100.00,West,265,11.0,17.0,58,-99.99,,,-99.99,,2013-01-18 12:12:00,
2013-01-18 07:23:00,17.0,4.0,-100.00,West,270,7.0,17.0,57,-99.99,,,-99.99,,2013-01-18 12:23:00,
2013-01-18 07:33:00,17.0,5.0,-100.00,West,260,10.0,18.0,58,-99.99,,,-99.99,,2013-01-18 12:33:00,
2013-01-18 07:43:00,17.0,5.0,-100.00,West,260,10.0,18.0,58,-99.99,,,-99.99,,2013-01-18 12:43:00,
2013-01-18 07:52:00,17.0,4.0,-100.00,West,275,11.0,19.0,57,-99.99,,,-99.99,,2013-01-18 12:52:00,
2013-01-18 08:03:00,17.0,6.0,-100.00,West,265,5.0,14.0,61,-99.99,,,-99.99,,2013-01-18 13:03:00,
2013-01-18 08:12:00,17.0,6.0,-100.00,West,265,5.0,14.0,61,-99.99,,,-99.99,,2013-01-18 13:12:00,
2013-01-18 08:23:00,17.0,7.0,-100.00,WSW,240,4.0,12.0,64,-99.99,,,-99.99,,2013-01-18 13:23:00,
2013-01-18 08:33:00,17.0,8.0,-100.00,SSW,210,6.0,14.0,66,-99.99,,,-99.99,,2013-01-18 13:33:00,
2013-01-18 08:43:00,17.0,8.0,-100.00,SSW,210,6.0,14.0,66,-99.99,,,-99.99,,2013-01-18 13:43:00,
2013-01-18 08:53:00,17.0,7.0,-100.00,SW,215,6.0,11.0,65,-99.99,,,-99.99,,2013-01-18 13:53:00,
2013-01-18 09:03:00,17.0,7.0,-100.00,SW,215,6.0,11.0,65,-99.99,,,-99.99,,2013-01-18 14:03:00,
2013-01-18 09:23:00,17.0,8.0,-100.00,SSW,210,4.0,17.0,68,-99.99,,,-99.99,,2013-01-18 14:23:00,
2013-01-18 09:34:00,17.0,8.0,-100.00,South,185,7.0,16.0,67,-99.99,,,-99.99,,2013-01-18 14:34:00,
2013-01-18 09:43:00,17.0,8.0,-100.00,South,185,7.0,16.0,67,-99.99,,,-99.99,,2013-01-18 14:43:00,
2013-01-18 09:53:00,17.0,8.0,-100.00,SW,215,8.0,15.0,66,-99.99,,,-99.99,,2013-01-18 14:53:00,
2013-01-18 10:03:00,18.0,8.0,-100.00,SSW,205,8.0,15.0,66,-99.99,,,-99.99,,2013-01-18 15:03:00,
2013-01-18 10:13:00,18.0,8.0,-100.00,SSW,205,8.0,15.0,66,-99.99,,,-99.99,,2013-01-18 15:13:00,
2013-01-18 10:23:00,18.0,8.0,-100.00,SSW,200,6.0,18.0,66,-99.99,,,-99.99,,2013-01-18 15:23:00,
2013-01-18 10:34:00,18.0,8.0,-100.00,SW,235,7.0,21.0,64,-99.99,,,-99.99,,2013-01-18 15:34:00,
2013-01-18 10:43:00,18.0,8.0,-100.00,SW,235,7.0,21.0,64,-99.99,,,-99.99,,2013-01-18 15:43:00,
2013-01-18 10:53:00,18.0,9.0,-100.00,South,180,5.0,12.0,69,-99.99,,,-99.99,,2013-01-18 15:53:00,
2013-01-18 11:03:00,17.0,9.0,-100.00,SW,215,10.0,17.0,71,-99.99,,,-99.99,,2013-01-18 16:03:00,
2013-01-18 11:13:00,17.0,9.0,-100.00,SW,215,10.0,17.0,71,-99.99,,,-99.99,,2013-01-18 16:13:00,
2013-01-18 11:23:00,16.0,9.0,-100.00,South,175,6.0,19.0,74,-99.99,,,-99.99,,2013-01-18 16:23:00,
2013-01-18 11:33:00,15.0,9.0,-100.00,South,175,7.0,16.0,77,-99.99,,,-99.99,,2013-01-18 16:33:00,
2013-01-18 11:43:00,15.0,9.0,-100.00,South,175,7.0,16.0,77,-99.99,,,-99.99,,2013-01-18 16:43:00,
2013-01-18 11:52:00,15.0,11.0,-100.00,South,190,9.0,16.0,81,-99.99,,,-99.99,,2013-01-18 16:52:00,
2013-01-18 12:03:00,15.0,11.0,-100.00,SSE,165,6.0,16.0,84,-99.99,,,-99.99,,2013-01-18 17:03:00,
2013-01-18 12:13:00,15.0,11.0,-100.00,SSE,165,6.0,16.0,84,-99.99,,,-99.99,,2013-01-18 17:13:00,
2013-01-18 12:23:00,15.0,12.0,-100.00,South,170,8.0,19.0,85,-99.99,,,-99.99,,2013-01-18 17:23:00,
2013-01-18 12:34:00,15.0,12.0,-100.00,South,170,9.0,16.0,86,-99.99,,,-99.99,,2013-01-18 17:34:00,
2013-01-18 12:43:00,15.0,12.0,-100.00,South,170,9.0,16.0,86,-99.99,,,-99.99,,2013-01-18 17:43:00,
2013-01-18 12:53:00,16.0,13.0,-100.00,SE,145,5.0,17.0,87,-99.99,,,-99.99,,2013-01-18 17:53:00,
2013-01-18 13:03:00,16.0,13.0,-100.00,SE,145,5.0,17.0,87,-99.99,,,-99.99,,2013-01-18 18:03:00,
2013-01-18 13:24:00,16.0,13.0,-100.00,South,180,6.0,13.0,87,-99.99,,,-99.99,,2013-01-18 18:24:00,
2013-01-18 13:33:00,16.0,13.0,-100.00,South,170,7.0,21.0,88,-99.99,,,-99.99,,2013-01-18 18:33:00,
2013-01-18 13:43:00,16.0,13.0,-100.00,South,170,7.0,21.0,88,-99.99,,,-99.99,,2013-01-18 18:43:00,
2013-01-18 13:52:00,17.0,14.0,-100.00,SSE,155,5.0,13.0,88,-99.99,,,-99.99,,2013-01-18 18:52:00,
2013-01-18 14:03:00,17.0,14.0,-100.00,SSE,160,7.0,16.0,88,-99.99,,,-99.99,,2013-01-18 19:03:00,
2013-01-18 14:13:00,17.0,14.0,-100.00,SSE,160,7.0,16.0,88,-99.99,,,-99.99,,2013-01-18 19:13:00,
2013-01-18 14:23:00,18.0,15.0,-100.00,South,175,5.0,16.0,88,-99.99,,,-99.99,,2013-01-18 19:23:00,
2013-01-18 14:33:00,18.0,15.0,-100.00,SE,135,5.0,11.0,88,-99.99,,,-99.99,,2013-01-18 19:33:00,
2013-01-18 14:43:00,18.0,15.0,-100.00,SE,135,5.0,11.0,88,-99.99,,,-99.99,,2013-01-18 19:43:00,
2013-01-18 14:52:00,19.0,16.0,-100.00,SE,140,2.0,7.0,88,-99.99,,,-99.99,,2013-01-18 19:52:00,
2013-01-18 15:03:00,19.0,16.0,-100.00,ESE,120,4.0,9.0,88,-99.99,,,-99.99,,2013-01-18 20:03:00,
2013-01-18 15:13:00,19.0,16.0,-100.00,ESE,120,4.0,9.0,88,-99.99,,,-99.99,,2013-01-18 20:13:00,
2013-01-18 15:23:00,19.0,17.0,-100.00,East,95,4.0,10.0,89,-99.99,,,-99.99,,2013-01-18 20:23:00,
2013-01-18 15:33:00,19.0,17.0,-100.00,SSE,150,5.0,9.0,89,-99.99,,,-99.99,,2013-01-18 20:33:00,
2013-01-18 15:43:00,19.0,17.0,-100.00,SSE,150,5.0,9.0,89,-99.99,,,-99.99,,2013-01-18 20:43:00,
2013-01-18 15:53:00,19.0,17.0,-100.00,SE,130,5.0,10.0,89,-99.99,,,-99.99,,2013-01-18 20:53:00,
2013-01-18 16:03:00,19.0,16.0,-100.00,SE,140,4.0,11.0,89,-99.99,,,-99.99,,2013-01-18 21:03:00,
2013-01-18 16:13:00,19.0,16.0,-100.00,SE,140,4.0,11.0,89,-99.99,,,-99.99,,2013-01-18 21:13:00,
2013-01-18 16:23:00,20.0,17.0,-100.00,SE,130,4.0,10.0,89,-99.99,,,-99.99,,2013-01-18 21:23:00,
2013-01-18 16:33:00,20.0,17.0,-100.00,SSE,155,5.0,9.0,89,-99.99,,,-99.99,,2013-01-18 21:33:00,
2013-01-18 16:43:00,20.0,17.0,-100.00,SSE,155,5.0,9.0,89,-99.99,,,-99.99,,2013-01-18 21:43:00,
2013-01-18 16:52:00,20.0,18.0,-100.00,SE,125,4.0,9.0,89,-99.99,,,-99.99,,2013-01-18 21:52:00,
2013-01-18 17:03:00,21.0,18.0,-100.00,SSE,165,5.0,11.0,89,-99.99,,,-99.99,,2013-01-18 22:03:00,
2013-01-18 17:12:00,21.0,18.0,-100.00,SSE,165,5.0,11.0,89,-99.99,,,-99.99,,2013-01-18 22:12:00,
2013-01-18 17:23:00,22.0,19.0,-100.00,SSE,160,4.0,12.0,89,-99.99,,,-99.99,,2013-01-18 22:23:00,
2013-01-18 17:33:00,22.0,20.0,-100.00,South,185,4.0,11.0,90,-99.99,,,-99.99,,2013-01-18 22:33:00,
2013-01-18 17:43:00,22.0,20.0,-100.00,South,185,4.0,11.0,90,-99.99,,,-99.99,,2013-01-18 22:43:00,
2013-01-18 17:52:00,24.0,21.0,-100.00,South,175,6.0,12.0,91,-99.99,,,-99.99,,2013-01-18 22:52:00,
2013-01-18 18:03:00,24.0,21.0,-100.00,South,175,6.0,12.0,91,-99.99,,,-99.99,,2013-01-18 23:03:00,
2013-01-18 18:12:00,24.0,21.0,-100.00,South,175,6.0,12.0,91,-99.99,,,-99.99,,2013-01-18 23:12:00,
2013-01-18 18:23:00,25.0,22.0,-100.00,SSE,165,8.0,18.0,91,-99.99,,,-99.99,,2013-01-18 23:23:00,
2013-01-18 18:33:00,26.0,23.0,-100.00,South,190,6.0,17.0,91,-99.99,,,-99.99,,2013-01-18 23:33:00,
2013-01-18 18:43:00,26.0,23.0,-100.00,South,190,6.0,17.0,91,-99.99,,,-99.99,,2013-01-18 23:43:00,
2013-01-18 18:52:00,27.0,24.0,-100.00,South,175,7.0,15.0,90,-99.99,,,-99.99,,2013-01-18 23:52:00,
2013-01-18 19:03:00,28.0,25.0,-100.00,South,185,9.0,19.0,90,-99.99,,,-99.99,,2013-01-19 00:03:00,
2013-01-18 19:13:00,28.0,25.0,-100.00,South,185,9.0,19.0,90,-99.99,,,-99.99,,2013-01-19 00:13:00,
2013-01-18 19:23:00,29.0,26.0,-100.00,South,180,9.0,19.0,89,-99.99,,,-99.99,,2013-01-19 00:23:00,
2013-01-18 19:33:00,30.0,26.0,-100.00,SSW,195,7.0,16.0,87,-99.99,,,-99.99,,2013-01-19 00:33:00,
2013-01-18 19:43:00,30.0,26.0,-100.00,SSW,195,7.0,16.0,87,-99.99,,,-99.99,,2013-01-19 00:43:00,
2013-01-18 19:53:00,30.0,27.0,-100.00,South,175,6.0,16.0,86,-99.99,,,-99.99,,2013-01-19 00:53:00,
2013-01-18 20:03:00,31.0,27.0,-100.00,South,180,8.0,17.0,86,-99.99,,,-99.99,,2013-01-19 01:03:00,
2013-01-18 20:12:00,31.0,27.0,-100.00,South,180,8.0,17.0,86,-99.99,,,-99.99,,2013-01-19 01:12:00,
2013-01-18 20:23:00,31.0,28.0,-100.00,SSE,165,7.0,15.0,87,-99.99,,,-99.99,,2013-01-19 01:23:00,
2013-01-18 20:33:00,31.0,28.0,-100.00,SSW,200,7.0,16.0,87,-99.99,,,-99.99,,2013-01-19 01:33:00,
2013-01-18 20:43:00,31.0,28.0,-100.00,SSW,200,7.0,16.0,87,-99.99,,,-99.99,,2013-01-19 01:43:00,
2013-01-18 20:52:00,32.0,29.0,-100.00,South,190,8.0,16.0,87,-99.99,,,-99.99,,2013-01-19 01:52:00,
2013-01-18 21:03:00,32.0,29.0,-100.00,South,180,5.0,16.0,87,-99.99,,,-99.99,,2013-01-19 02:03:00,
2013-01-18 21:12:00,32.0,29.0,-100.00,South,180,5.0,16.0,87,-99.99,,,-99.99,,2013-01-19 02:12:00,
2013-01-18 21:23:00,33.0,29.0,-100.00,SSW,210,8.0,14.0,87,-99.99,,,-99.99,,2013-01-19 02:23:00,
2013-01-18 21:33:00,33.0,30.0,-100.00,SSW,205,6.0,14.0,88,-99.99,,,-99.99,,2013-01-19 02:33:00,
2013-01-18 21:43:00,33.0,30.0,-100.00,SSW,205,6.0,14.0,88,-99.99,,,-99.99,,2013-01-19 02:43:00,
2013-01-18 21:53:00,33.0,30.0,-100.00,SSW,205,6.0,13.0,88,-99.99,,,-99.99,,2013-01-19 02:53:00,
2013-01-18 22:03:00,33.0,31.0,-100.00,South,190,4.0,11.0,89,-99.99,,,-99.99,,2013-01-19 03:03:00,
2013-01-18 22:12:00,33.0,31.0,-100.00,South,190,4.0,11.0,89,-99.99,,,-99.99,,2013-01-19 03:12:00,
2013-01-18 22:23:00,33.0,31.0,-100.00,SSW,210,5.0,9.0,89,-99.99,,,-99.99,,2013-01-19 03:23:00,
2013-01-18 22:33:00,35.0,32.0,-100.00,SW,225,6.0,11.0,90,-99.99,,,-99.99,,2013-01-19 03:33:00,
2013-01-18 22:43:00,35.0,32.0,-100.00,SW,225,6.0,11.0,90,-99.99,,,-99.99,,2013-01-19 03:43:00,
2013-01-18 22:52:00,35.0,32.0,-100.00,South,185,5.0,18.0,88,-99.99,,,-99.99,,2013-01-19 03:52:00,
2013-01-18 23:02:00,36.0,32.0,-100.00,SSW,205,7.0,13.0,86,-99.99,,,-99.99,,2013-01-19 04:02:00,
2013-01-18 23:12:00,36.0,32.0,-100.00,SSW,205,7.0,13.0,86,-99.99,,,-99.99,,2013-01-19 04:12:00,
2013-01-18 23:22:00,36.0,33.0,-100.00,SW,215,7.0,11.0,86,-99.99,,,-99.99,,2013-01-19 04:22:00,
2013-01-18 23:33:00,36.0,32.0,-100.00,SW,235,4.0,11.0,86,-99.99,,,-99.99,,2013-01-19 04:33:00,
2013-01-18 23:42:00,36.0,32.0,-100.00,SW,235,4.0,11.0,86,-99.99,,,-99.99,,2013-01-19 04:42:00,
2013-01-18 23:52:00,37.0,33.0,-100.00,SW,220,4.0,11.0,84,-99.99,,,-99.99,,2013-01-19 04:52:00,